Annandale, Virginia
Current Conditions -  °F | °C
As of 8:45 PM on Sunday 23 Nov 2014 (Local Time) from KDAA Reporting Station
Light Rain Light Rain  
Wind Chill: 11°   Ceiling: 2200
Heat Index: 11°   Visibility: 10mi
Dew Point:   Wind: 3mph
Humidity: 88%   Direction: 120°ESE
Pressure: 29.97"   Gusts: NA
Location:  38.83°N, 77.19°W
Report Text: KDAA 240145Z AUTO 12003KT 10SM -RA FEW014 BKN022 OVC028 11/09 A2997 RMK AO2 RAE0110B0145DZB0110E0128 BKN V OVC
Loading
Personal Weather Stations






























Interactive Weather Map New forecast layout! Learn more

10-Day Weather Forecast

Advertisements
Track Severe Weather on mobile